createdAt,value
2019-04-10T00:01:45.157Z,101377.22
2019-04-10T00:04:15.142Z,101374.84
2019-04-10T00:06:45.863Z,101368.74
2019-04-10T00:09:16.917Z,101373.81
2019-04-10T00:11:47.551Z,101375.20
2019-04-10T00:14:18.295Z,101377.45
2019-04-10T00:16:48.903Z,101372.31
2019-04-10T00:19:18.855Z,101389.79
2019-04-10T00:21:49.439Z,101383.70
2019-04-10T00:24:19.871Z,101380.59
2019-04-10T00:26:50.141Z,101385.80
2019-04-10T00:29:20.360Z,101382.95
2019-04-10T00:31:50.797Z,101390.14
2019-04-10T00:34:21.209Z,101388.20
2019-04-10T00:36:51.456Z,101389.34
2019-04-10T00:39:22.301Z,101393.42
2019-04-10T00:41:52.615Z,101391.21
2019-04-10T00:44:23.662Z,101388.73
2019-04-10T00:46:54.745Z,101385.41
2019-04-10T00:49:25.918Z,101380.48
2019-04-10T00:51:56.074Z,101387.88
2019-04-10T00:54:26.053Z,101385.48
2019-04-10T00:56:56.968Z,101379.81
2019-04-10T00:59:26.921Z,101377.98
2019-04-10T01:01:56.952Z,101384.45
2019-04-10T01:04:27.017Z,101380.81
2019-04-10T01:06:57.031Z,101385.78
2019-04-10T01:09:27.044Z,101384.14
2019-04-10T01:11:57.274Z,101387.96
2019-04-10T01:14:27.233Z,101380.77
2019-04-10T01:16:57.856Z,101381.91
2019-04-10T01:19:28.156Z,101386.97
2019-04-10T01:21:58.909Z,101385.81
2019-04-10T01:24:29.929Z,101384.88
2019-04-10T01:27:00.000Z,101384.66
2019-04-10T01:29:30.051Z,101383.05
2019-04-10T01:32:00.048Z,101388.09
2019-04-10T01:34:30.094Z,101387.84
2019-04-10T01:37:00.611Z,101389.39
2019-04-10T01:39:32.570Z,101391.45
2019-04-10T01:42:02.663Z,101387.56
2019-04-10T01:44:32.981Z,101389.05
2019-04-10T01:47:03.030Z,101385.93
2019-04-10T01:49:33.630Z,101385.19
2019-04-10T01:52:04.711Z,101392.00
2019-04-10T01:54:35.372Z,101391.33
2019-04-10T01:57:06.184Z,101383.94
2019-04-10T01:59:38.217Z,101394.09
2019-04-10T02:02:37.047Z,101386.91
2019-04-10T02:05:08.152Z,101389.19
2019-04-10T02:07:38.319Z,101387.45
2019-04-10T02:10:08.490Z,101392.80
2019-04-10T02:12:38.899Z,101394.66
2019-04-10T02:15:11.857Z,101393.78
2019-04-10T02:17:41.137Z,101399.76
2019-04-10T02:20:11.304Z,101395.64
2019-04-10T02:22:41.313Z,101389.95
2019-04-10T02:25:11.792Z,101393.28
2019-04-10T02:27:42.635Z,101394.30
2019-04-10T02:30:16.378Z,101396.25
2019-04-10T02:32:47.704Z,101395.59
2019-04-10T02:35:18.922Z,101393.48
2019-04-10T02:37:52.436Z,101396.10
2019-04-10T02:40:21.118Z,101395.34
2019-04-10T02:42:51.465Z,101395.94
2019-04-10T02:45:22.015Z,101390.45
2019-04-10T02:47:52.842Z,101376.00
2019-04-10T02:50:22.996Z,101383.97
2019-04-10T02:52:52.982Z,101382.12
2019-04-10T02:55:23.200Z,101383.33
2019-04-10T02:57:54.222Z,101379.48
2019-04-10T03:00:26.441Z,101380.22
2019-04-10T03:02:57.584Z,101383.33
2019-04-10T03:05:28.184Z,101392.54
2019-04-10T03:07:58.455Z,101389.87
2019-04-10T03:10:38.947Z,101382.87
2019-04-10T03:13:02.659Z,101390.55
2019-04-10T03:15:33.794Z,101391.47
2019-04-10T03:18:04.319Z,101390.27
2019-04-10T03:20:34.408Z,101396.83
2019-04-10T03:23:05.237Z,101400.34
2019-04-10T03:25:35.270Z,101402.27
2019-04-10T03:28:07.116Z,101400.42
2019-04-10T03:30:39.489Z,101405.29
2019-04-10T03:33:39.977Z,101398.46
2019-04-10T03:36:09.506Z,101406.25
2019-04-10T03:38:53.936Z,101399.28
2019-04-10T03:41:12.263Z,101403.63
2019-04-10T03:43:42.476Z,101398.30
2019-04-10T03:46:12.988Z,101394.59
2019-04-10T03:48:43.110Z,101398.45
2019-04-10T03:51:13.155Z,101396.58
2019-04-10T03:53:44.553Z,101393.34
2019-04-10T03:56:15.748Z,101397.07
2019-04-10T03:58:45.726Z,101406.80
2019-04-10T04:01:16.525Z,101404.84
2019-04-10T04:03:46.575Z,101403.57
2019-04-10T04:06:17.555Z,101405.38
2019-04-10T04:08:47.960Z,101404.14
2019-04-10T04:11:19.710Z,101405.69
2019-04-10T04:13:50.064Z,101406.86
2019-04-10T04:16:20.139Z,101402.65
2019-04-10T04:18:51.062Z,101408.84
2019-04-10T04:21:21.240Z,101409.03
2019-04-10T04:23:51.230Z,101411.95
2019-04-10T04:26:21.302Z,101416.82
2019-04-10T04:28:51.596Z,101415.83
2019-04-10T04:31:22.810Z,101419.41
2019-04-10T04:33:53.319Z,101423.80
2019-04-10T04:36:24.534Z,101426.86
2019-04-10T04:38:54.591Z,101429.18
2019-04-10T04:41:25.329Z,101427.10
2019-04-10T04:43:55.387Z,101429.46
2019-04-10T04:46:26.054Z,101426.39
2019-04-10T04:48:56.168Z,101432.56
2019-04-10T04:51:27.277Z,101430.09
2019-04-10T04:53:57.252Z,101435.55
2019-04-10T04:56:28.205Z,101433.20
2019-04-10T04:58:59.351Z,101436.84
2019-04-10T05:01:29.717Z,101439.86
2019-04-10T05:04:00.373Z,101439.70
2019-04-10T05:06:30.849Z,101436.20
2019-04-10T05:09:00.955Z,101445.88
2019-04-10T05:11:30.969Z,101440.81
2019-04-10T05:14:02.761Z,101449.00
2019-04-10T05:16:33.037Z,101448.25
2019-04-10T05:19:03.789Z,101452.55
2019-04-10T05:21:35.021Z,101456.69
2019-04-10T05:24:05.333Z,101456.78
2019-04-10T05:26:36.273Z,101454.55
2019-04-10T05:29:06.525Z,101457.26
2019-04-10T05:31:36.547Z,101455.45
2019-04-10T05:34:06.567Z,101461.88
2019-04-10T05:36:37.698Z,101462.62
2019-04-10T05:39:08.588Z,101460.09
2019-04-10T05:41:38.535Z,101464.22
2019-04-10T05:44:09.513Z,101471.09
2019-04-10T05:46:39.530Z,101468.26
2019-04-10T05:49:10.745Z,101478.59
2019-04-10T05:51:41.596Z,101478.47
2019-04-10T05:54:12.775Z,101474.14
2019-04-10T05:56:42.854Z,101476.88
2019-04-10T05:59:13.601Z,101480.20
2019-04-10T06:01:45.599Z,101482.86
2019-04-10T06:04:16.833Z,101483.25
2019-04-10T06:06:46.893Z,101480.30
2019-04-10T06:09:16.925Z,101486.75
2019-04-10T06:11:47.387Z,101492.86
2019-04-10T06:14:17.836Z,101487.06
2019-04-10T06:16:48.937Z,101484.87
2019-04-10T06:19:19.954Z,101492.20
2019-04-10T06:21:50.405Z,101491.69
2019-04-10T06:24:20.526Z,101494.09
2019-04-10T06:26:50.561Z,101488.86
2019-04-10T06:29:21.135Z,101491.44
2019-04-10T06:31:51.175Z,101496.98
2019-04-10T06:34:21.188Z,101493.05
2019-04-10T06:36:51.569Z,101491.88
2019-04-10T06:39:21.605Z,101489.62
2019-04-10T06:41:51.790Z,101486.98
2019-04-10T06:44:21.910Z,101495.09
2019-04-10T06:46:52.927Z,101489.12
2019-04-10T06:49:23.011Z,101498.84
2019-04-10T06:51:53.536Z,101491.32
2019-04-10T06:54:24.512Z,101495.61
2019-04-10T06:56:54.753Z,101493.59
2019-04-10T06:59:24.859Z,101498.89
2019-04-10T07:01:58.442Z,101500.16
2019-04-10T07:04:28.407Z,101501.22
2019-04-10T07:07:04.809Z,101500.75
2019-04-10T07:09:30.355Z,101503.58
2019-04-10T07:12:01.767Z,101499.16
2019-04-10T07:14:35.152Z,101502.59
2019-04-10T07:17:06.737Z,101502.31
2019-04-10T07:19:36.465Z,101510.57
2019-04-10T07:22:11.997Z,101517.10
2019-04-10T07:24:41.380Z,101509.45
2019-04-10T07:27:10.355Z,101510.08
2019-04-10T07:29:40.483Z,101508.64
2019-04-10T07:32:11.913Z,101509.67
2019-04-10T07:34:42.527Z,101510.53
2019-04-10T07:37:17.556Z,101512.72
2019-04-10T07:39:45.056Z,101511.41
2019-04-10T07:42:25.985Z,101513.94
2019-04-10T07:44:47.105Z,101520.20
2019-04-10T07:47:17.476Z,101524.05
2019-04-10T07:49:48.303Z,101523.27
2019-04-10T07:52:20.074Z,101522.54
2019-04-10T07:54:50.420Z,101514.67
2019-04-10T07:57:20.490Z,101512.70
2019-04-10T07:59:50.564Z,101518.09
2019-04-10T08:02:21.172Z,101513.91
2019-04-10T08:04:51.653Z,101523.64
2019-04-10T08:07:29.849Z,101522.02
2019-04-10T08:09:54.094Z,101523.04
2019-04-10T08:12:25.496Z,101522.06
2019-04-10T08:14:56.215Z,101523.53
2019-04-10T08:17:26.358Z,101522.54
2019-04-10T08:19:57.319Z,101517.80
2019-04-10T08:22:28.599Z,101522.07
2019-04-10T08:24:58.717Z,101519.73
2019-04-10T08:27:29.816Z,101523.41
2019-04-10T08:30:01.113Z,101525.63
2019-04-10T08:32:32.256Z,101524.73
2019-04-10T08:35:03.177Z,101524.96
2019-04-10T08:37:33.276Z,101518.53
2019-04-10T08:40:03.353Z,101527.22
2019-04-10T08:42:33.475Z,101525.39
2019-04-10T08:45:03.515Z,101520.38
2019-04-10T08:47:33.575Z,101525.97
2019-04-10T08:50:04.026Z,101523.14
2019-04-10T08:52:34.719Z,101520.08
2019-04-10T08:55:05.966Z,101529.61
2019-04-10T08:57:36.248Z,101519.52
2019-04-10T09:00:08.001Z,101520.79
2019-04-10T09:02:38.278Z,101526.26
2019-04-10T09:05:09.329Z,101526.23
2019-04-10T09:07:40.072Z,101526.62
2019-04-10T09:10:12.309Z,101524.35
2019-04-10T09:12:43.020Z,101525.43
2019-04-10T09:15:13.978Z,101521.54
2019-04-10T09:17:44.149Z,101525.47
2019-04-10T09:20:14.369Z,101521.87
2019-04-10T09:23:07.507Z,101529.86
2019-04-10T09:25:17.797Z,101511.27
2019-04-10T09:27:48.102Z,101518.94
2019-04-10T09:30:18.453Z,101521.76
2019-04-10T09:32:48.645Z,101511.70
2019-04-10T09:35:18.704Z,101512.84
2019-04-10T09:37:48.781Z,101514.45
2019-04-10T09:40:18.874Z,101517.11
2019-04-10T09:42:49.945Z,101511.86
2019-04-10T09:45:20.156Z,101501.75
2019-04-10T09:47:50.292Z,101503.44
2019-04-10T09:50:21.339Z,101507.13
2019-04-10T09:52:52.360Z,101514.28
2019-04-10T09:55:22.497Z,101508.91
2019-04-10T09:57:52.540Z,101508.82
2019-04-10T10:00:23.443Z,101505.11
2019-04-10T10:02:53.563Z,101506.20
2019-04-10T10:05:23.694Z,101495.12
2019-04-10T10:07:56.069Z,101504.59
2019-04-10T10:10:25.499Z,101497.45
2019-04-10T10:12:55.554Z,101503.76
2019-04-10T10:15:25.631Z,101498.49
2019-04-10T10:17:55.731Z,101502.12
2019-04-10T10:20:25.986Z,101503.80
2019-04-10T10:22:56.052Z,101503.99
2019-04-10T10:25:26.973Z,101503.88
2019-04-10T10:27:58.501Z,101501.55
2019-04-10T10:30:28.793Z,101499.61
2019-04-10T10:32:59.396Z,101499.88
2019-04-10T10:35:29.511Z,101497.02
2019-04-10T10:38:00.982Z,101497.02
2019-04-10T10:40:31.849Z,101487.70
2019-04-10T10:43:02.450Z,101490.10
2019-04-10T10:45:32.576Z,101482.73
2019-04-10T10:48:03.346Z,101486.05
2019-04-10T10:50:33.598Z,101486.70
2019-04-10T10:53:04.012Z,101478.03
2019-04-10T10:55:34.169Z,101487.97
2019-04-10T10:58:04.219Z,101483.99
2019-04-10T11:00:35.494Z,101482.24
2019-04-10T11:03:05.758Z,101482.72
2019-04-10T11:05:37.178Z,101486.58
2019-04-10T11:08:07.339Z,101483.09
2019-04-10T11:10:37.513Z,101474.80
2019-04-10T11:13:08.834Z,101480.48
2019-04-10T11:15:42.417Z,101480.53
2019-04-10T11:18:10.915Z,101476.68
2019-04-10T11:20:41.798Z,101481.87
2019-04-10T11:23:12.101Z,101477.00
2019-04-10T11:25:42.148Z,101468.34
2019-04-10T11:28:12.578Z,101461.16
2019-04-10T11:30:44.961Z,101466.20
2019-04-10T11:33:15.082Z,101460.92
2019-04-10T11:35:45.886Z,101457.67
2019-04-10T11:38:17.489Z,101461.48
2019-04-10T11:40:47.657Z,101457.98
2019-04-10T11:43:18.784Z,101461.17
2019-04-10T11:45:52.843Z,101454.69
2019-04-10T11:48:20.906Z,101463.55
2019-04-10T11:50:53.426Z,101459.84
2019-04-10T11:53:23.979Z,101472.52
2019-04-10T11:55:56.980Z,101468.78
2019-04-10T11:58:28.926Z,101468.38
2019-04-10T12:01:00.149Z,101468.59
2019-04-10T12:03:31.364Z,101469.92
2019-04-10T12:06:04.261Z,101472.66
2019-04-10T12:08:55.067Z,101471.12
2019-04-10T12:11:06.050Z,101472.16
2019-04-10T12:13:37.209Z,101466.34
2019-04-10T12:16:07.255Z,101470.25
2019-04-10T12:18:38.362Z,101463.72
2019-04-10T12:21:09.386Z,101472.70
2019-04-10T12:23:39.474Z,101470.42
2019-04-10T12:26:09.692Z,101472.50
2019-04-10T12:28:40.276Z,101473.79
2019-04-10T12:31:10.507Z,101469.98
2019-04-10T12:33:40.574Z,101471.36
2019-04-10T12:36:12.150Z,101473.50
2019-04-10T12:38:42.228Z,101468.59
2019-04-10T12:41:12.260Z,101475.53
2019-04-10T12:43:43.160Z,101470.64
2019-04-10T12:46:13.346Z,101461.45
2019-04-10T12:48:43.844Z,101455.47
2019-04-10T12:51:14.023Z,101450.11
2019-04-10T12:53:44.058Z,101464.16
2019-04-10T12:56:14.086Z,101470.61
2019-04-10T12:58:44.696Z,101466.44
2019-04-10T13:01:16.327Z,101457.54
2019-04-10T13:03:47.356Z,101462.52
2019-04-10T13:06:17.977Z,101467.70
2019-04-10T13:08:57.910Z,101467.50
2019-04-10T13:11:20.521Z,101468.23
2019-04-10T13:13:51.318Z,101462.31
2019-04-10T13:16:21.814Z,101461.24
2019-04-10T13:18:52.332Z,101456.30
2019-04-10T13:21:22.431Z,101457.22
2019-04-10T13:23:53.042Z,101457.30
2019-04-10T13:26:23.939Z,101462.36
2019-04-10T13:28:54.070Z,101461.52
2019-04-10T13:31:24.202Z,101459.91
2019-04-10T13:33:55.114Z,101454.16
2019-04-10T13:36:25.148Z,101459.80
2019-04-10T13:38:55.281Z,101453.52
2019-04-10T13:41:26.134Z,101464.69
2019-04-10T13:43:56.117Z,101463.37
2019-04-10T13:46:26.822Z,101463.44
2019-04-10T13:48:57.645Z,101465.45
2019-04-10T13:51:27.881Z,101465.27
2019-04-10T13:53:58.528Z,101464.88
2019-04-10T13:56:28.860Z,101465.29
2019-04-10T13:58:58.910Z,101460.69
2019-04-10T14:01:31.603Z,101460.95
2019-04-10T14:04:02.880Z,101460.34
2019-04-10T14:06:33.927Z,101464.83
2019-04-10T14:09:22.622Z,101462.09
2019-04-10T14:11:37.468Z,101468.38
2019-04-10T14:14:08.531Z,101465.52
2019-04-10T14:16:39.079Z,101465.10
2019-04-10T14:19:09.806Z,101468.17
2019-04-10T14:21:40.820Z,101466.23
2019-04-10T14:24:12.074Z,101459.55
2019-04-10T14:26:54.921Z,101462.98
2019-04-10T14:29:24.770Z,101465.97
2019-04-10T14:32:04.915Z,101474.97
2019-04-10T14:34:35.136Z,101470.64
2019-04-10T14:37:07.790Z,101473.83
2019-04-10T14:39:37.982Z,101469.62
2019-04-10T14:42:08.673Z,101469.27
2019-04-10T14:44:38.936Z,101468.64
2019-04-10T14:47:09.064Z,101479.30
2019-04-10T14:49:39.113Z,101471.95
2019-04-10T14:52:09.138Z,101470.95
2019-04-10T14:54:39.761Z,101477.89
2019-04-10T14:57:10.604Z,101474.37
2019-04-10T14:59:40.794Z,101477.80
2019-04-10T15:02:11.123Z,101475.20
2019-04-10T15:04:41.551Z,101478.53
2019-04-10T15:07:12.273Z,101479.07
2019-04-10T15:09:42.538Z,101474.91
2019-04-10T15:12:12.582Z,101495.03
2019-04-10T15:14:43.663Z,101481.19
2019-04-10T15:17:14.749Z,101478.09
2019-04-10T15:19:44.878Z,101491.98
2019-04-10T15:22:15.656Z,101490.13
2019-04-10T15:24:46.855Z,101490.00
2019-04-10T15:27:17.348Z,101492.27
2019-04-10T15:29:47.508Z,101498.83
2019-04-10T15:32:17.652Z,101490.48
2019-04-10T15:34:48.364Z,101498.06
2019-04-10T15:37:18.581Z,101492.78
2019-04-10T15:39:49.638Z,101504.11
2019-04-10T15:42:19.818Z,101510.23
2019-04-10T15:44:50.328Z,101505.26
2019-04-10T15:47:22.997Z,101512.56
2019-04-10T15:49:52.189Z,101511.96
2019-04-10T15:52:22.917Z,101509.80
2019-04-10T15:54:53.888Z,101510.92
2019-04-10T15:57:24.917Z,101517.70
2019-04-10T15:59:55.047Z,101517.25
2019-04-10T16:02:25.867Z,101512.81
2019-04-10T16:04:57.184Z,101515.89
2019-04-10T16:07:28.767Z,101524.09
2019-04-10T16:10:08.524Z,101517.92
2019-04-10T16:12:39.976Z,101519.40
2019-04-10T16:15:11.182Z,101516.37
2019-04-10T16:17:52.213Z,101521.63
2019-04-10T16:20:25.819Z,101521.80
2019-04-10T16:23:14.283Z,101521.17
2019-04-10T16:25:47.904Z,101516.77
2019-04-10T16:28:18.094Z,101522.69
2019-04-10T16:30:48.635Z,101529.31
2019-04-10T16:33:18.902Z,101522.45
2019-04-10T16:35:49.569Z,101527.49
2019-04-10T16:38:20.548Z,101521.50
2019-04-10T16:40:50.790Z,101521.54
2019-04-10T16:43:20.845Z,101522.86
2019-04-10T16:45:51.033Z,101527.10
2019-04-10T16:48:21.080Z,101529.61
2019-04-10T16:50:51.935Z,101535.72
2019-04-10T16:53:22.254Z,101534.70
2019-04-10T16:55:53.359Z,101537.35
2019-04-10T16:58:23.565Z,101533.66
2019-04-10T17:00:53.909Z,101540.59
2019-04-10T17:03:23.962Z,101553.19
2019-04-10T17:05:54.000Z,101551.58
2019-04-10T17:08:24.036Z,101546.92
2019-04-10T17:10:54.140Z,101549.11
2019-04-10T17:13:24.608Z,101546.75
2019-04-10T17:15:55.621Z,101550.38
2019-04-10T17:18:26.102Z,101553.04
2019-04-10T17:20:57.212Z,101551.86
2019-04-10T17:23:28.895Z,101559.56
2019-04-10T17:26:00.655Z,101556.92
2019-04-10T17:28:30.720Z,101557.54
2019-04-10T17:31:00.779Z,101562.22
2019-04-10T17:33:32.149Z,101560.67
2019-04-10T17:36:02.380Z,101568.38
2019-04-10T17:38:32.462Z,101571.86
2019-04-10T17:41:04.395Z,101569.81
2019-04-10T17:43:35.057Z,101569.69
2019-04-10T17:46:05.247Z,101572.45
2019-04-10T17:48:37.216Z,101576.19
2019-04-10T17:51:07.953Z,101584.12
2019-04-10T17:53:38.026Z,101576.88
2019-04-10T17:56:08.408Z,101584.96
2019-04-10T17:58:39.189Z,101588.97
2019-04-10T18:01:12.883Z,101587.64
2019-04-10T18:03:51.687Z,101589.37
2019-04-10T18:06:17.294Z,101594.44
2019-04-10T18:08:54.285Z,101605.95
2019-04-10T18:11:27.946Z,101602.98
2019-04-10T18:14:00.829Z,101609.87
2019-04-10T18:16:31.057Z,101609.77
2019-04-10T18:19:08.476Z,101618.66
2019-04-10T18:21:39.193Z,101629.13
2019-04-10T18:24:13.699Z,101628.50
2019-04-10T18:26:43.773Z,101629.72
2019-04-10T18:29:19.065Z,101631.05
2019-04-10T18:31:49.361Z,101642.31
2019-04-10T18:34:24.928Z,101645.78
2019-04-10T18:36:54.970Z,101643.37
2019-04-10T18:39:26.951Z,101650.20
2019-04-10T18:41:59.334Z,101657.98
2019-04-10T18:44:31.145Z,101660.95
2019-04-10T18:47:02.829Z,101666.60
2019-04-10T18:49:35.745Z,101669.78
2019-04-10T18:52:05.826Z,101664.77
2019-04-10T18:54:41.507Z,101674.97
2019-04-10T18:57:11.591Z,101674.44
2019-04-10T19:00:00.911Z,101674.54
2019-04-10T19:02:45.836Z,101679.83
2019-04-10T19:05:19.612Z,101688.56
2019-04-10T19:07:54.627Z,101694.03
2019-04-10T19:10:24.631Z,101691.97
2019-04-10T19:15:33.231Z,101689.80
2019-04-10T19:18:07.684Z,101698.05
2019-04-10T19:20:38.948Z,101702.81
2019-04-10T19:23:10.749Z,101703.15
2019-04-10T19:25:40.937Z,101704.20
2019-04-10T19:28:27.676Z,101705.80
2019-04-10T19:30:53.317Z,101709.91
2019-04-10T19:33:25.870Z,101713.48
2019-04-10T19:35:55.890Z,101715.06
2019-04-10T19:41:02.623Z,101704.23
2019-04-10T19:43:40.074Z,101716.47
2019-04-10T19:46:10.795Z,101711.80
2019-04-10T19:48:48.345Z,101721.97
2019-04-10T19:51:16.945Z,101717.16
2019-04-10T19:56:22.963Z,101722.43
2019-04-10T20:01:31.221Z,101726.63
2019-04-10T20:04:04.026Z,101721.32
2019-04-10T20:06:34.205Z,101722.75
2019-04-10T20:09:10.581Z,101726.56
2019-04-10T20:11:45.297Z,101726.07
2019-04-10T20:14:16.867Z,101735.23
2019-04-10T20:16:47.797Z,101727.41
2019-04-10T20:19:24.592Z,101725.58
2019-04-10T20:21:54.720Z,101734.31
2019-04-10T20:24:25.060Z,101732.28
2019-04-10T20:26:55.912Z,101733.91
2019-04-10T20:29:30.859Z,101740.46
2019-04-10T20:32:01.731Z,101731.07
2019-04-10T20:34:35.706Z,101743.78
2019-04-10T20:37:09.251Z,101743.09
2019-04-10T20:39:43.476Z,101747.90
2019-04-10T20:42:14.003Z,101747.70
2019-04-10T20:44:47.158Z,101759.84
2019-04-10T20:47:17.281Z,101749.62
2019-04-10T20:49:51.170Z,101753.06
2019-04-10T20:52:22.075Z,101756.61
2019-04-10T20:54:53.849Z,101755.20
2019-04-10T20:57:23.883Z,101755.80
2019-04-10T20:59:57.369Z,101759.41
2019-04-10T21:02:28.517Z,101758.06
2019-04-10T21:05:05.790Z,101760.92
2019-04-10T21:07:31.871Z,101762.89
2019-04-10T21:10:06.367Z,101764.17
2019-04-10T21:12:36.481Z,101767.81
2019-04-10T21:15:09.084Z,101769.56
2019-04-10T21:17:39.693Z,101768.63
2019-04-10T21:20:16.733Z,101778.13
2019-04-10T21:22:47.273Z,101773.44
2019-04-10T21:25:19.424Z,101783.48
2019-04-10T21:27:56.325Z,101783.52
2019-04-10T21:31:07.619Z,101787.21
2019-04-10T21:34:01.195Z,101782.81
2019-04-10T21:36:37.045Z,101787.42
2019-04-10T21:39:09.437Z,101791.50
2019-04-10T21:41:41.149Z,101792.78
2019-04-10T21:44:11.799Z,101792.08
2019-04-10T21:46:44.868Z,101795.03
2019-04-10T21:49:15.609Z,101794.75
2019-04-10T21:51:46.087Z,101800.99
2019-04-10T21:54:16.432Z,101797.30
2019-04-10T21:56:49.453Z,101798.99
2019-04-10T21:59:20.506Z,101798.34
2019-04-10T22:01:51.452Z,101803.11
2019-04-10T22:04:21.650Z,101798.14
2019-04-10T22:07:20.337Z,101800.68
2019-04-10T22:10:08.434Z,101803.38
2019-04-10T22:12:43.784Z,101800.22
2019-04-10T22:15:28.957Z,101801.52
2019-04-10T22:18:00.769Z,101803.25
2019-04-10T22:20:33.858Z,101808.45
2019-04-10T22:23:09.840Z,101799.56
2019-04-10T22:25:39.881Z,101798.17
2019-04-10T22:28:14.921Z,101806.24
2019-04-10T22:30:45.705Z,101809.31
2019-04-10T22:33:18.281Z,101808.86
2019-04-10T22:35:48.435Z,101810.01
2019-04-10T22:38:25.020Z,101813.85
2019-04-10T22:40:56.031Z,101813.85
2019-04-10T22:43:30.859Z,101821.09
2019-04-10T22:46:00.881Z,101818.99
2019-04-10T22:48:33.963Z,101815.72
2019-04-10T22:51:04.012Z,101825.89
2019-04-10T22:53:34.805Z,101828.18
2019-04-10T22:56:04.868Z,101838.76
2019-04-10T22:58:41.493Z,101835.36
2019-04-10T23:01:13.335Z,101832.42
2019-04-10T23:03:47.695Z,101843.03
2019-04-10T23:06:17.695Z,101837.02
2019-04-10T23:11:31.690Z,101839.99
2019-04-10T23:13:58.460Z,101843.16
2019-04-10T23:16:28.640Z,101849.04
2019-04-10T23:19:03.682Z,101837.55
2019-04-10T23:21:41.039Z,101843.47
2019-04-10T23:24:12.246Z,101844.18
2019-04-10T23:26:42.291Z,101840.91
2019-04-10T23:29:14.290Z,101845.66
2019-04-10T23:31:44.285Z,101840.19
2019-04-10T23:34:18.761Z,101849.17
2019-04-10T23:36:48.922Z,101847.00
2019-04-10T23:39:24.019Z,101849.29
2019-04-10T23:41:54.822Z,101847.91
2019-04-10T23:44:31.163Z,101845.98
2019-04-10T23:47:02.061Z,101857.27
2019-04-10T23:49:35.954Z,101856.42
2019-04-10T23:52:05.966Z,101860.81
2019-04-10T23:54:39.773Z,101861.70
2019-04-10T23:57:10.119Z,101852.75
2019-04-10T23:59:46.797Z,101859.27
